createdAt,value
2022-12-05T00:00:40.761Z,18.20
2022-12-05T00:05:48.797Z,15.60
2022-12-05T00:10:54.641Z,16.90
2022-12-05T00:16:00.586Z,18.50
2022-12-05T00:21:07.335Z,18.40
2022-12-05T00:26:14.000Z,19.00
2022-12-05T00:31:22.856Z,18.50
2022-12-05T00:36:31.233Z,18.20
2022-12-05T00:41:37.553Z,16.60
2022-12-05T00:46:43.204Z,17.70
2022-12-05T00:51:48.905Z,17.60
2022-12-05T00:56:56.412Z,18.40
2022-12-05T01:02:02.183Z,17.70
2022-12-05T01:07:08.072Z,17.10
2022-12-05T01:12:14.128Z,17.10
2022-12-05T01:17:19.976Z,15.50
2022-12-05T01:22:25.562Z,18.00
2022-12-05T01:27:31.361Z,17.80
2022-12-05T01:32:37.222Z,16.30
2022-12-05T01:37:42.945Z,16.20
2022-12-05T01:42:48.798Z,17.60
2022-12-05T01:47:55.690Z,17.50
2022-12-05T01:53:01.797Z,15.50
2022-12-05T01:58:10.066Z,17.10
2022-12-05T02:03:23.368Z,16.10
2022-12-05T02:08:30.460Z,15.70
2022-12-05T02:13:49.624Z,16.60
2022-12-05T02:19:10.100Z,15.80
2022-12-05T02:24:34.936Z,14.60
2022-12-05T02:30:04.106Z,15.60
2022-12-05T02:35:18.410Z,14.30
2022-12-05T02:40:29.306Z,13.30
2022-12-05T02:45:38.601Z,15.40
2022-12-05T02:50:47.532Z,15.60
2022-12-05T02:55:54.719Z,14.00
2022-12-05T03:01:00.839Z,15.30
2022-12-05T03:06:13.298Z,15.30
2022-12-05T03:11:20.099Z,13.80
2022-12-05T03:16:33.430Z,13.30
2022-12-05T03:21:47.085Z,15.10
2022-12-05T03:27:02.285Z,15.40
2022-12-05T03:32:17.478Z,14.80
2022-12-05T03:37:30.940Z,14.30
2022-12-05T03:42:40.549Z,15.60
2022-12-05T03:47:53.069Z,14.60
2022-12-05T03:53:20.650Z,14.60
2022-12-05T03:58:35.695Z,14.60
2022-12-05T04:03:47.526Z,14.90
2022-12-05T04:08:58.493Z,13.60
2022-12-05T04:14:08.972Z,13.20
2022-12-05T04:19:22.712Z,14.50
2022-12-05T04:24:50.432Z,13.70
2022-12-05T04:30:05.055Z,13.30
2022-12-05T04:35:17.617Z,13.60
2022-12-05T04:40:32.037Z,14.20
2022-12-05T04:45:41.693Z,14.40
2022-12-05T04:50:51.182Z,12.50
2022-12-05T04:56:00.334Z,12.70
2022-12-05T05:01:11.617Z,12.50
2022-12-05T05:06:18.817Z,11.70
2022-12-05T05:11:27.099Z,13.00
2022-12-05T05:16:35.459Z,12.40
2022-12-05T05:21:42.505Z,11.80
2022-12-05T05:26:52.479Z,12.60
2022-12-05T05:32:01.546Z,14.50
2022-12-05T05:37:07.252Z,12.60
2022-12-05T05:42:13.005Z,10.90
2022-12-05T05:47:18.909Z,11.60
2022-12-05T05:52:24.717Z,13.80
2022-12-05T05:57:30.425Z,11.70
2022-12-05T06:02:37.491Z,11.80
2022-12-05T06:07:43.765Z,12.60
2022-12-05T06:12:49.634Z,12.40
2022-12-05T06:17:56.341Z,14.90
2022-12-05T06:23:02.218Z,18.60
2022-12-05T06:28:08.033Z,13.70
2022-12-05T06:33:14.667Z,11.90
2022-12-05T06:38:20.840Z,13.60
2022-12-05T06:43:26.445Z,14.30
2022-12-05T06:48:32.163Z,14.30
2022-12-05T06:53:37.975Z,12.90
2022-12-05T06:58:44.453Z,15.00
2022-12-05T07:03:51.229Z,21.50
2022-12-05T07:08:56.845Z,15.00
2022-12-05T07:14:10.259Z,17.30
2022-12-05T07:19:20.850Z,20.00
2022-12-05T07:24:27.448Z,16.70
2022-12-05T07:29:33.484Z,13.60
2022-12-05T07:34:39.264Z,15.40
2022-12-05T07:39:45.165Z,16.50
2022-12-05T07:44:51.190Z,15.90
2022-12-05T07:49:57.072Z,14.70
2022-12-05T07:55:03.276Z,15.60
2022-12-05T08:00:10.702Z,16.70
2022-12-05T08:05:19.219Z,15.60
2022-12-05T08:10:24.856Z,15.60
2022-12-05T08:15:30.638Z,18.60
2022-12-05T08:20:36.505Z,16.60
2022-12-05T08:25:42.136Z,20.70
2022-12-05T08:30:48.146Z,17.20
2022-12-05T08:35:54.130Z,20.90
2022-12-05T08:41:02.335Z,15.30
2022-12-05T08:46:09.238Z,16.20
2022-12-05T08:51:15.547Z,16.00
2022-12-05T08:56:26.830Z,17.50
2022-12-05T09:01:34.463Z,14.60
2022-12-05T09:06:41.661Z,18.90
2022-12-05T09:11:50.924Z,19.70
2022-12-05T09:16:56.716Z,17.10
2022-12-05T09:22:02.607Z,17.60
2022-12-05T09:27:08.384Z,19.60
2022-12-05T09:32:14.192Z,17.50
2022-12-05T09:37:37.966Z,16.30
2022-12-05T09:42:58.901Z,20.20
2022-12-05T09:48:10.520Z,19.10
2022-12-05T09:53:27.532Z,18.00
2022-12-05T09:58:42.708Z,17.60
2022-12-05T10:04:02.132Z,19.00
2022-12-05T10:09:22.749Z,18.50
2022-12-05T10:14:42.400Z,19.80
2022-12-05T10:19:52.024Z,21.50
2022-12-05T10:25:02.854Z,19.20
2022-12-05T10:30:15.888Z,17.60
2022-12-05T10:35:23.512Z,19.90
2022-12-05T10:40:34.608Z,21.00
2022-12-05T10:45:44.048Z,21.00
2022-12-05T10:50:52.462Z,20.10
2022-12-05T11:01:26.430Z,24.80
2022-12-05T11:06:33.674Z,21.30
2022-12-05T11:11:39.985Z,24.30
2022-12-05T11:16:54.182Z,24.90
2022-12-05T11:22:01.638Z,26.80
2022-12-05T11:32:38.789Z,24.00
2022-12-05T11:37:52.844Z,24.40
2022-12-05T11:43:27.156Z,23.80
2022-12-05T11:48:49.840Z,21.10
2022-12-05T11:54:56.315Z,21.10
2022-12-05T12:00:12.646Z,20.90
2022-12-05T12:05:26.162Z,21.10
2022-12-05T12:10:38.843Z,24.30
2022-12-05T12:15:59.642Z,24.00
2022-12-05T12:21:17.628Z,21.70
2022-12-05T12:26:34.728Z,23.80
2022-12-05T12:32:02.275Z,24.80
2022-12-05T12:37:21.804Z,20.90
2022-12-05T12:42:33.749Z,23.50
2022-12-05T12:47:51.907Z,23.90
2022-12-05T12:53:20.077Z,21.30
2022-12-05T12:58:42.819Z,24.30
2022-12-05T13:03:57.470Z,24.20
2022-12-05T13:09:11.829Z,22.50
2022-12-05T13:14:23.438Z,22.00
2022-12-05T13:19:37.545Z,23.70
2022-12-05T13:24:43.487Z,29.70
2022-12-05T13:29:56.025Z,28.00
2022-12-05T13:35:09.960Z,25.60
2022-12-05T13:40:48.170Z,25.20
2022-12-05T13:46:05.524Z,25.20
2022-12-05T13:51:20.704Z,24.40
2022-12-05T13:56:45.739Z,24.00
2022-12-05T14:01:56.113Z,24.70
2022-12-05T14:07:02.315Z,23.70
2022-12-05T14:12:44.614Z,24.40
2022-12-05T14:17:56.162Z,21.80
2022-12-05T14:23:44.417Z,23.50
2022-12-05T14:29:02.146Z,26.70
2022-12-05T14:34:27.528Z,26.40
2022-12-05T14:39:38.795Z,23.90
2022-12-05T14:44:49.772Z,26.40
2022-12-05T14:50:04.700Z,68.10
2022-12-05T14:55:22.134Z,28.80
2022-12-05T15:00:32.024Z,26.10
2022-12-05T15:05:39.611Z,29.00
2022-12-05T15:10:45.799Z,28.60
2022-12-05T15:16:01.342Z,30.00
2022-12-05T15:21:14.192Z,53.00
2022-12-05T15:26:46.166Z,28.50
2022-12-05T15:31:51.564Z,27.40
2022-12-05T15:37:03.751Z,23.90
2022-12-05T15:42:17.078Z,24.20
2022-12-05T15:47:25.949Z,26.40
2022-12-05T15:52:38.973Z,27.20
2022-12-05T15:57:48.997Z,25.70
2022-12-05T16:03:00.054Z,22.80
2022-12-05T16:08:07.153Z,32.00
2022-12-05T16:13:17.198Z,35.20
2022-12-05T16:18:29.426Z,38.50
2022-12-05T16:23:37.472Z,33.50
2022-12-05T16:28:56.398Z,40.60
2022-12-05T16:34:04.678Z,37.40
2022-12-05T16:39:19.422Z,32.80
2022-12-05T16:45:02.359Z,25.00
2022-12-05T16:50:25.384Z,36.50
2022-12-05T16:55:37.223Z,31.50
2022-12-05T17:00:43.172Z,30.50
2022-12-05T17:05:49.035Z,28.70
2022-12-05T17:10:55.292Z,26.30
2022-12-05T17:16:01.187Z,30.40
2022-12-05T17:21:14.651Z,29.00
2022-12-05T17:26:22.530Z,28.50
2022-12-05T17:31:28.554Z,29.70
2022-12-05T17:37:02.776Z,35.00
2022-12-05T17:42:08.620Z,32.10
2022-12-05T17:47:15.664Z,32.80
2022-12-05T17:52:22.802Z,30.00
2022-12-05T17:57:28.692Z,33.70
2022-12-05T18:02:34.404Z,36.40
2022-12-05T18:07:41.477Z,32.10
2022-12-05T18:12:48.192Z,34.80
2022-12-05T18:17:55.624Z,29.90
2022-12-05T18:23:02.844Z,30.30
2022-12-05T18:28:08.918Z,34.90
2022-12-05T18:33:15.388Z,40.00
2022-12-05T18:38:21.063Z,31.10
2022-12-05T18:43:26.928Z,33.60
2022-12-05T18:48:44.818Z,32.70
2022-12-05T18:53:56.729Z,32.10
2022-12-05T18:59:04.662Z,27.80
2022-12-05T19:04:15.246Z,31.30
2022-12-05T19:09:24.080Z,28.60
2022-12-05T19:14:33.055Z,30.10
2022-12-05T19:19:40.343Z,25.80
2022-12-05T19:24:46.059Z,29.40
2022-12-05T19:29:51.717Z,29.20
2022-12-05T19:34:57.610Z,31.90
2022-12-05T19:40:03.486Z,31.30
2022-12-05T19:45:14.912Z,32.70
2022-12-05T19:50:23.674Z,36.70
2022-12-05T19:55:29.693Z,38.20
2022-12-05T20:00:35.443Z,46.60
2022-12-05T20:05:41.061Z,30.80
2022-12-05T20:10:46.682Z,30.30
2022-12-05T20:15:52.848Z,30.90
2022-12-05T20:21:01.318Z,33.50
2022-12-05T20:26:09.406Z,32.40
2022-12-05T20:31:16.823Z,31.00
2022-12-05T20:36:24.713Z,30.00
2022-12-05T20:41:30.876Z,31.00
2022-12-05T20:46:36.960Z,33.30
2022-12-05T20:51:45.190Z,34.30
2022-12-05T20:56:51.256Z,29.10
2022-12-05T21:01:56.954Z,30.80
2022-12-05T21:07:03.120Z,32.70
2022-12-05T21:12:09.668Z,29.00
2022-12-05T21:17:15.296Z,28.40
2022-12-05T21:22:21.239Z,32.80
2022-12-05T21:27:27.155Z,33.30
2022-12-05T21:32:32.803Z,30.60
2022-12-05T21:37:39.103Z,28.90
2022-12-05T21:42:44.846Z,29.10
2022-12-05T21:47:51.281Z,31.10
2022-12-05T21:52:57.353Z,31.20
2022-12-05T21:58:02.986Z,29.40
2022-12-05T22:03:13.501Z,30.00
2022-12-05T22:08:19.547Z,31.40
2022-12-05T22:13:25.177Z,34.20
2022-12-05T22:18:31.224Z,45.80
2022-12-05T22:23:37.361Z,34.20
2022-12-05T22:28:43.511Z,28.60
2022-12-05T22:33:50.733Z,32.60
2022-12-05T22:38:56.488Z,33.90
2022-12-05T22:44:02.256Z,30.00
2022-12-05T22:49:08.260Z,28.10
2022-12-05T22:54:14.732Z,28.80
2022-12-05T22:59:20.935Z,29.60
2022-12-05T23:04:27.024Z,28.20
2022-12-05T23:09:32.832Z,27.50
2022-12-05T23:14:38.464Z,29.40
2022-12-05T23:19:44.105Z,31.10
2022-12-05T23:24:50.085Z,29.80
2022-12-05T23:29:55.747Z,29.00
2022-12-05T23:35:01.501Z,27.90
2022-12-05T23:40:08.830Z,30.50
2022-12-05T23:45:15.155Z,33.10
2022-12-05T23:50:20.993Z,30.20
2022-12-05T23:55:26.715Z,27.40
